Portada
METAR-TAF:

METAR-TAF

Aeroports :

Aeroport de Londres-Heathrow

Londres-Heathrow, Anglaterra

latitud: 51-29N, longitud: 000-27W, altitud: 24 m

Observació

L'informe es va fer fa 31 minuts, a les 04:20 UTC
Vent 9 kt del Est
Temperatura 12°C
Humitat 71%
Pressió 1015 hPa
Visibilitat 10 km o més

METAR: EGLL 210420Z AUTO 09009KT 9999 NCD 12/07 Q1015 NOSIG

Hora: 05:51 (04:51 UTC)

Pronòstic

L'informe es va fer fa 5 hores i 57 minuts, a les 22:54 UTC
Pronòstic vàlid del 21 a les 00 UTC al 22 a les 06 UTC
Vent 8 kt del Est/Sud-Est
Visibilitat 10 km o més
sense núvols per sota de 1500 mi sense presència de cumulonimbus.
Probabilitat 30% :
Temporalment
l' 22 a les 01 UTC al 22 a les 06 UTC
Visibilitat: 7000 m
xàfecs de pluja

TAF: EGLL 202254Z 2100/2206 11008KT CAVOK PROB30 TEMPO 2201/2206 7000 SHRA

Observacions i pronòstics meteorològics de més de 4000 aeroports (METAR i TAF).

Les estacions disponibles són els punts grocs i vermells al mapa.

Posi el ratolí al punt desitjat per veure el nom de l'estació.

Feu clic per veure les observacions i els pronòstics meteorològics.

Per canviar el mapa: feu clic els botons verds amb una creu de color negre per apropar; al botó verd amb un guió per allunyar la imatge; o en les fletxes verdes per a mapes adjacents.


METAR-TAF: